Time;durP1;ratioP1;P1;durP2;ratioP2;P2;SDS_P1;SDS_P2;PMS_P1;PMS_P2;Temp;Humidity;BMP_temperature;BMP_pressure;BME280_temperature;BME280_humidity;BME280_pressure;Samples;Min_cycle;Max_cycle;Signal;HPM_P1;HPM_P2
2022/03/13 00:02:17;;;;;;;27.10;14.60;;;;;;;5.61;100.00;101561.91;4948164;28;20050;-72
2022/03/13 00:04:49;;;;;;;26.70;15.77;;;;;;;5.59;100.00;101558.56;4944403;28;20041;-72
2022/03/13 00:07:19;;;;;;;26.88;14.90;;;;;;;5.50;100.00;101558.53;4962013;28;22525;-72
2022/03/13 00:09:48;;;;;;;24.02;15.98;;;;;;;5.42;100.00;101555.84;4931989;28;20141;-72
2022/03/13 00:12:15;;;;;;;23.75;16.42;;;;;;;5.36;100.00;101553.81;4948965;28;20040;-73
2022/03/13 00:14:43;;;;;;;24.90;16.23;;;;;;;5.41;100.00;101553.34;4928114;28;23649;-73
2022/03/13 00:17:11;;;;;;;22.23;14.55;;;;;;;5.44;100.00;101559.19;4947201;28;20066;-72
2022/03/13 00:19:37;;;;;;;24.98;16.02;;;;;;;5.44;100.00;101556.53;4932625;28;20061;-72
2022/03/13 00:22:04;;;;;;;25.10;15.15;;;;;;;5.42;100.00;101557.69;4928855;28;20030;-73
2022/03/13 00:24:31;;;;;;;25.05;16.08;;;;;;;5.35;100.00;101554.81;4931530;28;20046;-73
2022/03/13 00:26:56;;;;;;;24.70;16.13;;;;;;;5.42;100.00;101560.34;4943401;28;20065;-73
2022/03/13 00:29:22;;;;;;;25.55;17.15;;;;;;;5.46;100.00;101557.19;4944345;28;20034;-72
2022/03/13 00:31:47;;;;;;;26.33;16.27;;;;;;;5.46;100.00;101562.53;4910553;28;20054;-72
2022/03/13 00:34:14;;;;;;;28.55;15.15;;;;;;;5.35;100.00;101560.16;4922609;28;21121;-72
2022/03/13 00:36:40;;;;;;;25.27;16.48;;;;;;;5.25;100.00;101559.44;4912879;28;20055;-72
2022/03/13 00:39:06;;;;;;;23.95;16.35;;;;;;;5.19;100.00;101560.91;4929666;28;20038;-72
2022/03/13 00:41:31;;;;;;;26.20;16.33;;;;;;;5.18;100.00;101555.75;4909839;28;20070;-72
2022/03/13 00:43:57;;;;;;;26.33;17.38;;;;;;;5.16;100.00;101549.72;4922140;28;20113;-72
2022/03/13 00:46:22;;;;;;;25.00;15.70;;;;;;;5.12;100.00;101551.88;4903962;28;20056;-72
2022/03/13 00:48:48;;;;;;;23.88;16.13;;;;;;;5.09;100.00;101548.69;4922206;28;20031;-72
2022/03/13 00:51:13;;;;;;;25.13;17.05;;;;;;;5.09;100.00;101554.00;4922449;28;20150;-72
2022/03/13 00:53:38;;;;;;;25.27;17.00;;;;;;;5.05;100.00;101547.31;4922813;28;20130;-72
2022/03/13 00:56:04;;;;;;;27.08;16.50;;;;;;;5.06;100.00;101549.03;4942788;28;20034;-72
2022/03/13 00:58:30;;;;;;;26.45;16.73;;;;;;;5.02;100.00;101551.19;4926970;28;20141;-72
2022/03/13 01:00:55;;;;;;;27.33;17.73;;;;;;;5.01;100.00;101547.63;4942819;28;20114;-71
2022/03/13 01:03:36;;;;;;;24.38;16.80;;;;;;;5.01;100.00;101549.47;4939807;28;20059;-72
2022/03/13 01:06:03;;;;;;;28.13;17.23;;;;;;;5.03;100.00;101545.66;4941743;28;20054;-71
2022/03/13 01:08:28;;;;;;;25.17;15.52;;;;;;;5.10;100.00;101545.03;4927332;28;20054;-71
2022/03/13 01:10:54;;;;;;;22.38;15.02;;;;;;;5.19;100.00;101542.22;4940883;28;20042;-71
2022/03/13 01:13:21;;;;;;;27.10;15.57;;;;;;;5.28;100.00;101542.28;4934990;28;20059;-71
2022/03/13 01:15:48;;;;;;;27.88;17.13;;;;;;;5.32;100.00;101547.13;4925574;28;20566;-72
2022/03/13 01:18:13;;;;;;;26.63;17.23;;;;;;;5.41;100.00;101542.66;4922937;28;20031;-72
2022/03/13 01:20:39;;;;;;;23.73;16.15;;;;;;;5.54;100.00;101540.34;4920879;28;20054;-72
2022/03/13 01:23:04;;;;;;;23.52;16.33;;;;;;;5.54;100.00;101543.00;4929889;28;20165;-71
2022/03/13 01:25:30;;;;;;;25.23;15.60;;;;;;;5.53;100.00;101540.50;4896989;28;20066;-71
2022/03/13 01:27:55;;;;;;;25.67;16.48;;;;;;;5.60;100.00;101541.53;4932179;28;20398;-71
2022/03/13 01:30:20;;;;;;;24.10;16.60;;;;;;;5.63;100.00;101541.22;4934414;28;20439;-72
2022/03/13 01:32:52;;;;;;;24.50;16.05;;;;;;;5.61;100.00;101543.19;4941319;28;20058;-71
2022/03/13 01:35:22;;;;;;;26.17;17.17;;;;;;;5.53;100.00;101535.16;4942478;28;20034;-71
2022/03/13 01:37:48;;;;;;;25.98;16.27;;;;;;;5.52;100.00;101538.84;4927332;28;20054;-71
2022/03/13 01:40:19;;;;;;;24.25;15.73;;;;;;;5.58;100.00;101538.16;4939383;28;20169;-72
2022/03/13 01:42:44;;;;;;;26.95;15.32;;;;;;;5.60;100.00;101537.03;4926369;28;20694;-72
2022/03/13 01:45:13;;;;;;;25.98;16.20;;;;;;;5.55;100.00;101534.00;4955112;28;20043;-71
2022/03/13 01:47:39;;;;;;;22.08;15.82;;;;;;;5.56;100.00;101532.19;4932295;28;20046;-72
2022/03/13 01:50:09;;;;;;;22.95;15.48;;;;;;;5.57;100.00;101525.81;4947791;28;22618;-72
2022/03/13 01:52:35;;;;;;;23.65;16.20;;;;;;;5.63;100.00;101530.53;4929161;28;20348;-72
2022/03/13 01:55:02;;;;;;;25.50;17.10;;;;;;;5.55;100.00;101520.66;4937132;28;20038;-71
2022/03/13 01:57:27;;;;;;;24.73;17.15;;;;;;;5.48;100.00;101515.13;4928902;28;20065;-71
2022/03/13 01:59:55;;;;;;;25.55;17.05;;;;;;;5.46;100.00;101518.94;4886495;28;20054;-71
2022/03/13 02:02:22;;;;;;;25.98;16.20;;;;;;;5.46;100.00;101514.44;4924287;28;20027;-71
2022/03/13 02:04:52;;;;;;;26.52;16.77;;;;;;;5.47;100.00;101515.25;4903689;28;20051;-71
2022/03/13 02:07:18;;;;;;;24.45;16.55;;;;;;;5.58;100.00;101516.78;4926852;28;20085;-72
2022/03/13 02:09:46;;;;;;;24.80;16.90;;;;;;;5.55;100.00;101511.81;4919858;28;23858;-72
2022/03/13 02:12:11;;;;;;;24.95;16.65;;;;;;;5.58;100.00;101511.44;4947933;28;20035;-71
2022/03/13 02:14:37;;;;;;;23.80;16.90;;;;;;;5.60;100.00;101504.13;4920607;28;20971;-71
2022/03/13 02:17:03;;;;;;;33.13;16.80;;;;;;;5.69;100.00;101508.50;4941018;28;20039;-72
2022/03/13 02:19:28;;;;;;;24.17;16.90;;;;;;;5.67;100.00;101500.63;4949278;28;20201;-71
2022/03/13 02:21:55;;;;;;;26.27;17.48;;;;;;;5.68;100.00;101512.13;4926453;28;20059;-71
2022/03/13 02:24:23;;;;;;;26.33;16.83;;;;;;;5.69;100.00;101509.31;4941188;28;20039;-72
2022/03/13 02:27:00;;;;;;;25.42;16.42;;;;;;;5.72;100.00;101513.47;4913042;28;20046;-71
2022/03/13 02:29:27;;;;;;;25.10;16.73;;;;;;;5.67;100.00;101507.81;4939718;28;20030;-71
2022/03/13 02:31:52;;;;;;;28.92;17.50;;;;;;;5.61;100.00;101511.13;4923330;28;20058;-71
2022/03/13 02:34:19;;;;;;;26.23;17.13;;;;;;;5.63;100.00;101503.78;4941481;28;20081;-71
2022/03/13 02:36:53;;;;;;;24.75;17.05;;;;;;;5.64;100.00;101505.44;4925431;28;20795;-71
2022/03/13 02:39:19;;;;;;;25.38;17.02;;;;;;;5.67;100.00;101510.47;4939643;28;20038;-71
2022/03/13 02:41:45;;;;;;;26.20;17.60;;;;;;;5.72;100.00;101505.47;4910852;28;20066;-72
2022/03/13 02:44:12;;;;;;;28.90;15.95;;;;;;;5.66;100.00;101498.94;4953560;28;20034;-71
2022/03/13 02:46:56;;;;;;;25.15;16.88;;;;;;;5.62;100.00;101491.44;4941281;28;20454;-72
2022/03/13 02:49:23;;;;;;;28.38;17.30;;;;;;;5.57;100.00;101499.09;4927711;28;20081;-71
2022/03/13 02:51:53;;;;;;;28.35;17.15;;;;;;;5.49;100.00;101490.06;4938211;28;20155;-71
2022/03/13 02:54:19;;;;;;;27.10;17.70;;;;;;;5.52;100.00;101488.06;4924769;28;20200;-71
2022/03/13 02:56:45;;;;;;;24.50;17.08;;;;;;;5.53;100.00;101497.75;4940141;28;20030;-71
2022/03/13 02:59:12;;;;;;;24.50;16.38;;;;;;;5.49;100.00;101492.72;4920924;28;21600;-71
2022/03/13 03:01:38;;;;;;;23.83;16.45;;;;;;;5.47;100.00;101500.06;4919836;28;20038;-71
2022/03/13 03:04:04;;;;;;;26.77;16.52;;;;;;;5.43;100.00;101488.03;4921834;28;20488;-72
2022/03/13 03:06:31;;;;;;;23.23;16.23;;;;;;;5.39;100.00;101491.22;4953207;28;20030;-72
2022/03/13 03:08:58;;;;;;;24.85;16.45;;;;;;;5.55;100.00;101495.78;4947182;28;20049;-71
2022/03/13 03:11:24;;;;;;;30.42;17.65;;;;;;;5.57;100.00;101488.41;4930928;28;20241;-72
2022/03/13 03:13:49;;;;;;;24.23;16.40;;;;;;;5.46;100.00;101486.88;4954098;28;20046;-72
2022/03/13 03:16:14;;;;;;;25.25;16.85;;;;;;;5.38;100.00;101487.69;4947670;28;22710;-71
2022/03/13 03:18:40;;;;;;;24.80;17.00;;;;;;;5.37;100.00;101488.72;4932976;28;20065;-71
2022/03/13 03:21:06;;;;;;;29.30;18.55;;;;;;;5.32;100.00;101493.69;4946854;28;20069;-73
2022/03/13 03:23:32;;;;;;;32.22;18.77;;;;;;;5.24;100.00;101480.31;4963880;28;20121;-72
2022/03/13 03:25:57;;;;;;;31.00;17.65;;;;;;;5.21;100.00;101488.66;4921244;28;20096;-72
2022/03/13 03:28:23;;;;;;;29.70;17.98;;;;;;;5.15;100.00;101490.13;4964261;28;20088;-72
2022/03/13 03:30:49;;;;;;;31.52;19.45;;;;;;;5.09;100.00;101487.25;4964171;28;20042;-72
2022/03/13 03:33:14;;;;;;;28.42;17.98;;;;;;;5.03;100.00;101484.25;4929122;28;20722;-72
2022/03/13 03:35:40;;;;;;;27.63;17.75;;;;;;;4.92;100.00;101484.53;4949351;28;20568;-72
2022/03/13 03:38:05;;;;;;;32.05;19.30;;;;;;;4.84;100.00;101487.16;4947726;28;20050;-72
2022/03/13 03:40:33;;;;;;;27.15;19.10;;;;;;;4.79;100.00;101492.13;4943686;28;20034;-72
2022/03/13 03:43:00;;;;;;;29.88;19.00;;;;;;;4.69;100.00;101486.91;4947392;28;20050;-72
2022/03/13 03:45:26;;;;;;;28.92;18.77;;;;;;;4.67;100.00;101482.72;4962025;28;20034;-72
2022/03/13 03:47:52;;;;;;;31.20;19.52;;;;;;;4.67;100.00;101480.06;4944800;28;20047;-72
2022/03/13 03:50:18;;;;;;;31.67;20.25;;;;;;;4.74;100.00;101481.13;4931810;28;20023;-72
2022/03/13 03:52:45;;;;;;;28.40;19.35;;;;;;;4.77;100.00;101480.78;4946166;28;20045;-71
2022/03/13 03:55:11;;;;;;;32.03;20.42;;;;;;;4.79;100.00;101476.13;4935798;28;20062;-72
2022/03/13 03:57:36;;;;;;;29.08;18.60;;;;;;;4.77;100.00;101478.09;4942574;28;20114;-72
2022/03/13 04:00:05;;;;;;;29.33;19.63;;;;;;;4.73;100.00;101476.75;4935123;28;20060;-72
2022/03/13 04:02:32;;;;;;;31.92;19.13;;;;;;;4.67;100.00;101482.72;4947098;28;20042;-72
2022/03/13 04:04:57;;;;;;;28.70;18.35;;;;;;;4.61;100.00;101478.88;4941730;28;20057;-72
2022/03/13 04:07:23;;;;;;;29.45;18.60;;;;;;;4.48;100.00;101479.28;4943806;28;20034;-72
2022/03/13 04:09:48;;;;;;;28.40;18.40;;;;;;;4.44;100.00;101480.59;4910793;28;20034;-76
2022/03/13 04:12:14;;;;;;;28.23;18.33;;;;;;;4.30;100.00;101470.50;4962425;28;20116;-76
2022/03/13 04:14:40;;;;;;;28.70;19.33;;;;;;;4.26;100.00;101477.16;4962000;28;20141;-76
2022/03/13 04:17:06;;;;;;;29.92;17.33;;;;;;;4.16;100.00;101471.91;4936483;28;20060;-76
2022/03/13 04:19:31;;;;;;;24.67;17.08;;;;;;;4.07;100.00;101463.03;4962737;28;20164;-76
2022/03/13 04:21:57;;;;;;;26.65;17.80;;;;;;;3.99;100.00;101465.59;4896013;28;20144;-76
2022/03/13 04:24:22;;;;;;;27.00;17.08;;;;;;;3.99;100.00;101465.59;4962338;28;20149;-76
2022/03/13 04:26:49;;;;;;;30.02;19.13;;;;;;;3.97;100.00;101456.94;4916930;28;20175;-76
2022/03/13 04:29:16;;;;;;;27.63;17.35;;;;;;;3.95;100.00;101463.41;4944768;28;21016;-76
2022/03/13 04:31:42;;;;;;;26.92;17.98;;;;;;;3.83;100.00;101454.84;4913584;28;20034;-75
2022/03/13 04:34:08;;;;;;;26.38;17.88;;;;;;;3.77;100.00;101466.94;4918425;28;23848;-76
2022/03/13 04:36:35;;;;;;;26.42;16.75;;;;;;;3.76;100.00;101464.44;4943018;28;20045;-76
2022/03/13 04:39:02;;;;;;;28.08;17.70;;;;;;;3.73;100.00;101459.41;4927030;28;20054;-76
2022/03/13 04:41:28;;;;;;;27.20;17.48;;;;;;;3.73;100.00;101460.22;4943570;28;20039;-76
2022/03/13 04:43:54;;;;;;;27.20;17.05;;;;;;;3.84;100.00;101461.81;4932876;28;20154;-76
2022/03/13 04:46:19;;;;;;;28.02;16.25;;;;;;;3.94;100.00;101462.59;4949329;28;20026;-76
2022/03/13 04:48:45;;;;;;;26.42;17.08;;;;;;;4.07;100.00;101460.34;4925122;28;20054;-75
2022/03/13 04:51:10;;;;;;;26.80;17.45;;;;;;;4.18;100.00;101469.09;4960028;28;20065;-76
2022/03/13 04:53:36;;;;;;;28.83;16.23;;;;;;;4.17;100.00;101462.06;4948435;28;20102;-76
2022/03/13 04:56:02;;;;;;;24.13;16.77;;;;;;;4.16;100.00;101460.41;4936073;28;20054;-76
2022/03/13 04:58:27;;;;;;;34.75;17.83;;;;;;;4.10;100.00;101455.69;4954666;28;20030;-76
2022/03/13 05:00:53;;;;;;;25.80;17.05;;;;;;;3.98;100.00;101455.94;4933094;28;20066;-75
2022/03/13 05:03:18;;;;;;;31.38;16.85;;;;;;;4.01;100.00;101450.31;4941390;28;20034;-76
2022/03/13 05:05:44;;;;;;;23.35;15.88;;;;;;;4.03;100.00;101453.63;4922806;28;20061;-76
2022/03/13 05:08:18;;;;;;;26.58;17.08;;;;;;;4.02;100.00;101454.63;4949161;28;20138;-76
2022/03/13 05:10:44;;;;;;;28.55;16.73;;;;;;;3.97;100.00;101451.63;4927590;28;20050;-76
2022/03/13 05:13:11;;;;;;;22.80;15.77;;;;;;;3.90;100.00;101455.88;4938974;28;20055;-76
2022/03/13 05:15:37;;;;;;;25.08;15.95;;;;;;;3.90;100.00;101452.38;4941971;28;20237;-77
2022/03/13 05:18:03;;;;;;;26.50;16.23;;;;;;;3.87;100.00;101450.88;4930467;28;20055;-77
2022/03/13 05:20:30;;;;;;;24.88;16.40;;;;;;;3.78;100.00;101457.09;4947092;28;20026;-76
2022/03/13 05:22:55;;;;;;;24.65;15.88;;;;;;;3.78;100.00;101470.44;4930651;28;20140;-76
2022/03/13 05:25:23;;;;;;;27.05;16.00;;;;;;;3.70;100.00;101473.88;4942847;28;20134;-76
2022/03/13 05:27:52;;;;;;;25.80;16.33;;;;;;;3.66;100.00;101469.00;4911356;28;20065;-77
2022/03/13 05:30:20;;;;;;;22.65;15.30;;;;;;;3.70;100.00;101473.03;4947730;28;20027;-77
2022/03/13 05:32:46;;;;;;;28.48;14.98;;;;;;;3.76;100.00;101475.09;4914429;28;20122;-76
2022/03/13 05:35:12;;;;;;;23.15;14.75;;;;;;;3.80;100.00;101482.63;4947981;28;20034;-77
2022/03/13 05:37:37;;;;;;;20.80;13.82;;;;;;;3.80;100.00;101474.63;4941717;28;20109;-77
2022/03/13 05:40:05;;;;;;;26.13;16.48;;;;;;;3.71;100.00;101483.53;4923632;28;20058;-77
2022/03/13 05:42:30;;;;;;;22.40;14.77;;;;;;;3.73;100.00;101475.38;4946391;28;20027;-77
2022/03/13 05:44:56;;;;;;;23.45;15.20;;;;;;;3.65;100.00;101481.50;4926966;28;22591;-76
2022/03/13 05:47:21;;;;;;;26.88;15.48;;;;;;;3.58;100.00;101477.75;4955528;28;20060;-76
2022/03/13 05:49:47;;;;;;;24.80;14.27;;;;;;;3.61;100.00;101487.25;4924358;28;20051;-76
2022/03/13 05:52:16;;;;;;;22.70;14.80;;;;;;;3.56;100.00;101496.53;4943031;28;20050;-77
2022/03/13 05:54:45;;;;;;;26.20;14.98;;;;;;;3.52;100.00;101489.00;4932771;28;20023;-76
2022/03/13 05:57:11;;;;;;;26.70;15.30;;;;;;;3.51;100.00;101495.31;4948016;28;20039;-76
2022/03/13 05:59:37;;;;;;;24.90;14.70;;;;;;;3.49;100.00;101487.47;4941758;28;20053;-77
2022/03/13 06:02:04;;;;;;;28.05;15.52;;;;;;;3.51;100.00;101498.81;4927563;28;20085;-76
2022/03/13 06:04:32;;;;;;;25.30;15.70;;;;;;;3.52;100.00;101497.84;4942528;28;20088;-76
2022/03/13 06:06:57;;;;;;;24.02;15.40;;;;;;;3.59;100.00;101504.22;4926521;28;20050;-76
2022/03/13 06:09:23;;;;;;;22.15;14.68;;;;;;;3.71;100.00;101504.84;4941973;28;20038;-76
2022/03/13 06:11:48;;;;;;;24.65;15.55;;;;;;;3.98;100.00;101506.59;4938617;28;20668;-76
2022/03/13 06:14:14;;;;;;;24.83;15.57;;;;;;;4.25;100.00;101496.81;4941075;28;20534;-76
2022/03/13 06:16:39;;;;;;;26.27;15.88;;;;;;;4.65;100.00;101498.06;4933677;28;20038;-76
2022/03/13 06:19:05;;;;;;;24.42;15.65;;;;;;;5.09;100.00;101506.81;4929925;28;20054;-76
2022/03/13 06:21:30;;;;;;;27.45;14.80;;;;;;;5.41;100.00;101503.41;4949717;28;20177;-77
2022/03/13 06:23:56;;;;;;;24.02;14.65;;;;;;;5.42;100.00;101507.75;4930341;28;20449;-76
2022/03/13 06:26:21;;;;;;;20.77;13.73;;;;;;;5.40;100.00;101498.22;4950851;28;20070;-76
2022/03/13 06:28:47;;;;;;;26.30;15.20;;;;;;;5.33;100.00;101508.72;4937057;28;20055;-76
2022/03/13 06:31:12;;;;;;;23.98;14.00;;;;;;;5.33;100.00;101508.72;4941200;28;20482;-76
2022/03/13 06:33:38;;;;;;;22.42;14.63;;;;;;;5.55;100.00;101507.28;4924366;28;20161;-76
2022/03/13 06:36:04;;;;;;;21.67;13.68;;;;;;;6.32;100.00;101510.56;4942754;28;20045;-76
2022/03/13 06:38:30;;;;;;;23.50;14.13;;;;;;;7.04;92.48;101504.34;4944990;28;20395;-76
2022/03/13 06:40:55;;;;;;;20.95;13.70;;;;;;;7.45;79.67;101512.22;4925557;28;20046;-76
2022/03/13 06:43:21;;;;;;;19.85;13.82;;;;;;;7.37;76.87;101513.91;4929965;28;20046;-77
2022/03/13 06:45:46;;;;;;;23.27;13.43;;;;;;;7.59;74.08;101514.97;4927126;28;20058;-77
2022/03/13 06:48:14;;;;;;;21.90;13.60;;;;;;;8.04;69.24;101509.81;4942967;28;20027;-77
2022/03/13 06:50:39;;;;;;;19.83;13.40;;;;;;;8.49;65.07;101505.41;4930566;28;20069;-77
2022/03/13 06:53:05;;;;;;;23.38;13.50;;;;;;;8.50;61.95;101517.81;4942504;28;20034;-77
2022/03/13 06:55:30;;;;;;;16.05;11.90;;;;;;;7.75;63.34;101519.38;4934743;28;20132;-74
2022/03/13 06:57:56;;;;;;;21.85;12.90;;;;;;;6.85;66.39;101517.13;4945666;28;20976;-75
2022/03/13 07:00:21;;;;;;;21.23;13.70;;;;;;;6.21;73.34;101518.91;4945192;28;21056;-75
2022/03/13 07:02:48;;;;;;;18.85;12.93;;;;;;;5.90;80.76;101521.38;4929658;28;20110;-76
2022/03/13 07:05:13;;;;;;;21.75;13.13;;;;;;;5.65;86.60;101533.84;4944214;28;20033;-75
2022/03/13 07:07:39;;;;;;;21.48;12.85;;;;;;;5.58;88.90;101532.81;4941562;28;20050;-75
2022/03/13 07:10:07;;;;;;;19.60;12.50;;;;;;;5.50;89.52;101531.81;4946443;28;20504;-75
2022/03/13 07:12:33;;;;;;;22.05;13.52;;;;;;;5.50;90.62;101530.97;4930477;28;20061;-75
2022/03/13 07:14:58;;;;;;;19.60;12.82;;;;;;;5.49;91.38;101532.81;4944486;28;20410;-75
2022/03/13 07:17:24;;;;;;;21.10;13.02;;;;;;;5.47;91.58;101532.13;4929670;28;20051;-74
2022/03/13 07:19:50;;;;;;;20.75;13.13;;;;;;;5.47;92.18;101534.81;4945545;28;22751;-75
2022/03/13 07:22:16;;;;;;;17.15;12.25;;;;;;;5.55;92.57;101530.50;4951147;28;20165;-75
2022/03/13 07:24:43;;;;;;;18.15;12.60;;;;;;;5.57;96.08;101525.81;4944296;28;20026;-75
2022/03/13 07:27:08;;;;;;;17.95;11.43;;;;;;;5.72;91.64;101529.50;4927609;28;20122;-75
2022/03/13 07:29:34;;;;;;;21.02;13.27;;;;;;;5.83;91.61;101520.38;4918051;28;20061;-74
2022/03/13 07:31:59;;;;;;;23.30;13.77;;;;;;;5.91;89.78;101534.56;4941873;28;20402;-74
2022/03/13 07:34:26;;;;;;;20.55;12.63;;;;;;;6.02;86.11;101533.44;4923578;28;20164;-75
2022/03/13 07:36:52;;;;;;;21.30;13.95;;;;;;;6.15;82.87;101528.44;4940298;28;20034;-75
2022/03/13 07:39:18;;;;;;;22.42;12.50;;;;;;;6.16;79.62;101516.72;4929763;28;20186;-74
2022/03/13 07:41:44;;;;;;;21.08;13.18;;;;;;;6.21;80.50;101518.91;4949931;28;20061;-74
2022/03/13 07:44:10;;;;;;;21.25;12.68;;;;;;;6.21;81.24;101526.91;4946794;28;20125;-75
2022/03/13 07:46:36;;;;;;;19.33;12.70;;;;;;;6.32;77.29;101526.59;4933172;28;20051;-74
2022/03/13 07:49:02;;;;;;;20.63;12.48;;;;;;;6.44;76.64;101525.25;4959494;28;20050;-72
2022/03/13 07:51:27;;;;;;;23.52;13.00;;;;;;;6.55;73.92;101525.91;4936105;28;20065;-71
2022/03/13 07:53:53;;;;;;;22.88;11.95;;;;;;;6.67;73.45;101532.59;4956575;28;20446;-71
2022/03/13 07:56:19;;;;;;;20.38;12.85;;;;;;;6.86;71.75;101526.84;4933864;28;20116;-71
2022/03/13 07:58:44;;;;;;;18.48;11.82;;;;;;;7.07;70.63;101522.75;4938189;28;20238;-71
2022/03/13 08:01:10;;;;;;;18.63;12.35;;;;;;;7.46;66.95;101535.31;4931303;28;20059;-72
2022/03/13 08:03:38;;;;;;;18.08;12.40;;;;;;;7.75;64.14;101534.63;4943451;28;20030;-72
2022/03/13 08:06:04;;;;;;;17.45;11.90;;;;;;;7.81;64.09;101540.13;4944082;28;20088;-72
2022/03/13 08:08:30;;;;;;;20.73;13.30;;;;;;;7.87;63.24;101534.06;4927999;28;20055;-72
2022/03/13 08:10:57;;;;;;;20.25;13.38;;;;;;;8.21;63.53;101532.78;4942166;28;20065;-72
2022/03/13 08:13:23;;;;;;;18.55;12.77;;;;;;;8.81;59.92;101526.56;4929132;28;20101;-72
2022/03/13 08:15:48;;;;;;;21.58;13.43;;;;;;;9.02;59.27;101527.66;4942635;28;20090;-72
2022/03/13 08:18:14;;;;;;;19.98;12.40;;;;;;;9.21;58.47;101524.41;4917788;28;20066;-71
2022/03/13 08:20:39;;;;;;;20.70;12.75;;;;;;;9.26;55.99;101524.66;4943098;28;20042;-71
2022/03/13 08:23:05;;;;;;;17.38;11.98;;;;;;;9.27;56.83;101523.66;4925545;28;20092;-72
2022/03/13 08:25:30;;;;;;;16.70;11.45;;;;;;;9.47;56.19;101531.97;4942764;28;20411;-71
2022/03/13 08:27:56;;;;;;;17.58;12.20;;;;;;;9.50;54.57;101520.00;4949987;28;20041;-71
2022/03/13 08:30:22;;;;;;;25.17;12.82;;;;;;;9.44;54.73;101532.38;4915278;28;20133;-71
2022/03/13 08:32:48;;;;;;;21.85;13.00;;;;;;;9.53;54.11;101531.22;4943147;28;20471;-72
2022/03/13 08:35:14;;;;;;;16.45;11.60;;;;;;;9.51;53.73;101533.28;4926791;28;20052;-72
2022/03/13 08:37:39;;;;;;;18.58;11.82;;;;;;;9.39;53.71;101533.94;4947300;28;23906;-71
2022/03/13 08:40:06;;;;;;;25.05;11.60;;;;;;;9.37;53.81;101536.84;4929216;28;20169;-72
2022/03/13 08:42:32;;;;;;;17.15;11.98;;;;;;;9.25;53.99;101539.13;4950504;28;20038;-72
2022/03/13 08:44:59;;;;;;;18.85;12.73;;;;;;;9.24;54.23;101532.09;4930867;28;20167;-72
2022/03/13 08:47:24;;;;;;;18.13;12.20;;;;;;;9.28;53.41;101528.00;4948054;28;20569;-71
2022/03/13 08:49:50;;;;;;;17.00;11.65;;;;;;;9.61;52.54;101530.25;4954391;28;20045;-71
2022/03/13 08:52:16;;;;;;;19.00;11.90;;;;;;;9.67;51.82;101534.06;4928726;28;20149;-72
2022/03/13 08:54:41;;;;;;;20.77;12.13;;;;;;;9.97;51.55;101535.63;4949031;28;20667;-72
2022/03/13 08:57:07;;;;;;;19.23;12.38;;;;;;;10.17;51.92;101546.56;4935799;28;20059;-72
2022/03/13 08:59:36;;;;;;;16.65;12.13;;;;;;;10.55;51.37;101548.19;4940349;28;20034;-72
2022/03/13 09:02:02;;;;;;;17.83;12.88;;;;;;;11.49;49.60;101542.31;4940981;28;20057;-72
2022/03/13 09:04:27;;;;;;;19.80;12.05;;;;;;;12.26;47.01;101538.34;4941926;28;20082;-72
2022/03/13 09:06:54;;;;;;;22.02;12.27;;;;;;;12.90;44.72;101534.97;4926079;28;20031;-72
2022/03/13 09:09:20;;;;;;;16.70;11.90;;;;;;;13.34;43.76;101536.13;4941834;28;20034;-72
2022/03/13 09:11:47;;;;;;;20.90;12.00;;;;;;;13.30;42.15;101534.88;4928139;28;20045;-71
2022/03/13 09:14:13;;;;;;;22.30;12.52;;;;;;;13.46;42.74;101528.97;4929729;28;20101;-72
2022/03/13 09:16:43;;;;;;;21.20;12.40;;;;;;;13.53;41.67;101529.78;4950029;28;20515;-72
2022/03/13 09:19:09;;;;;;;16.25;11.65;;;;;;;13.73;41.33;101536.97;4926365;28;20482;-71
2022/03/13 09:21:38;;;;;;;17.02;12.98;;;;;;;13.48;41.69;101529.59;4945446;28;20050;-72
2022/03/13 09:24:06;;;;;;;19.75;13.02;;;;;;;13.49;41.62;101530.44;4925330;28;20057;-72
2022/03/13 09:26:34;;;;;;;17.85;12.18;;;;;;;13.38;41.36;101528.41;4956537;28;20040;-71
2022/03/13 09:29:02;;;;;;;17.13;12.23;;;;;;;13.71;39.84;101530.94;4941224;28;20038;-72
2022/03/13 09:31:28;;;;;;;18.48;11.85;;;;;;;14.17;40.55;101532.50;4955716;28;20041;-72
2022/03/13 09:33:53;;;;;;;15.85;11.80;;;;;;;14.35;39.47;101521.72;4949077;28;20196;-72
2022/03/13 09:36:19;;;;;;;17.73;12.15;;;;;;;14.37;38.28;101519.66;4927997;28;20087;-72
2022/03/13 09:38:45;;;;;;;17.58;12.75;;;;;;;14.07;39.19;101514.88;4942059;28;20126;-71
2022/03/13 09:41:12;;;;;;;15.90;11.57;;;;;;;13.89;39.46;101506.66;4940765;28;20180;-71
2022/03/13 09:43:37;;;;;;;21.45;12.20;;;;;;;13.84;40.02;101507.31;4947869;28;22718;-71
2022/03/13 09:46:03;;;;;;;18.48;12.70;;;;;;;13.80;39.71;101521.53;4942425;28;20057;-74
2022/03/13 09:48:29;;;;;;;20.08;12.82;;;;;;;13.79;40.23;101519.84;4963651;28;20161;-76
2022/03/13 09:50:55;;;;;;;17.33;12.18;;;;;;;14.05;39.49;101522.41;4954065;28;20062;-75
2022/03/13 09:53:20;;;;;;;16.83;12.48;;;;;;;14.25;39.35;101516.84;4970507;28;20031;-75
2022/03/13 09:55:46;;;;;;;20.67;12.60;;;;;;;14.47;38.43;101519.16;4960688;28;20038;-72
2022/03/13 09:58:12;;;;;;;17.48;13.02;;;;;;;14.66;39.05;101501.06;4928119;28;20501;-72
2022/03/13 10:00:37;;;;;;;21.13;13.27;;;;;;;14.82;37.91;101499.66;4941650;28;20042;-72
2022/03/13 10:03:06;;;;;;;18.95;12.95;;;;;;;14.81;37.80;101498.81;4927674;28;20667;-73
2022/03/13 10:05:42;;;;;;;19.02;12.55;;;;;;;14.98;37.95;101494.44;4924904;28;20935;-71
2022/03/13 10:08:08;;;;;;;16.73;12.43;;;;;;;15.18;36.62;101485.25;4932006;28;20088;-72
2022/03/13 10:10:45;;;;;;;16.65;12.75;;;;;;;15.31;36.91;101486.97;4942147;28;20394;-70
2022/03/13 10:13:15;;;;;;;22.90;12.98;;;;;;;15.45;36.09;101477.59;4930961;28;20184;-70
2022/03/13 10:15:46;;;;;;;18.10;13.00;;;;;;;15.73;36.09;101477.03;4947004;28;20145;-71
2022/03/13 10:18:20;;;;;;;17.80;13.18;;;;;;;15.92;35.05;101472.34;4935256;28;20026;-70
2022/03/13 10:20:46;;;;;;;;;;;;;;;16.15;35.03;101469.66;4925195;28;20055;-71
2022/03/13 10:23:15;;;;;;;21.67;13.05;;;;;;;16.15;36.39;101463.41;4929609;28;20389;-71
2022/03/13 10:25:42;;;;;;;17.98;13.65;;;;;;;16.42;35.01;101461.03;4923971;28;20197;-71
2022/03/13 10:28:14;;;;;;;18.67;13.60;;;;;;;16.05;35.45;101463.97;4907414;28;20030;-71
2022/03/13 10:30:43;;;;;;;20.70;14.10;;;;;;;15.88;35.19;101455.69;4934014;28;20180;-71
2022/03/13 10:33:09;;;;;;;19.15;13.23;;;;;;;15.75;35.60;101464.84;4949851;28;20053;-71
2022/03/13 10:35:38;;;;;;;17.13;12.75;;;;;;;15.61;35.99;101467.97;4930649;28;20143;-72
2022/03/13 10:38:23;;;;;;;18.85;13.38;;;;;;;15.75;36.58;101464.03;4931509;28;20061;-72
2022/03/13 10:40:56;;;;;;;20.05;13.68;;;;;;;16.04;36.28;101464.19;4933196;28;20095;-71
2022/03/13 10:43:26;;;;;;;20.60;13.80;;;;;;;16.16;36.52;101456.91;4945488;28;20050;-71
2022/03/13 10:45:53;;;;;;;18.80;13.30;;;;;;;16.58;35.11;101451.34;4945717;28;20466;-72
2022/03/13 10:48:32;;;;;;;15.98;12.80;;;;;;;16.81;35.10;101454.06;4929358;28;20050;-72
2022/03/13 10:51:01;;;;;;;22.40;12.98;;;;;;;16.94;35.29;101448.34;4941376;28;20039;-71
2022/03/13 10:53:27;;;;;;;22.27;13.75;;;;;;;17.42;34.29;101455.28;4925218;28;20054;-72
2022/03/13 10:56:07;;;;;;;16.00;13.02;;;;;;;17.44;34.71;101452.31;4945212;28;20054;-71
2022/03/13 10:58:35;;;;;;;20.63;14.65;;;;;;;17.26;34.08;101445.16;4938416;28;20134;-76
2022/03/13 11:01:09;;;;;;;20.92;14.23;;;;;;;16.98;34.02;101442.44;4947427;28;20105;-77
2022/03/13 11:03:47;;;;;;;18.17;13.98;;;;;;;17.13;34.73;101434.59;4950567;28;20069;-77
2022/03/13 11:06:12;;;;;;;18.35;14.65;;;;;;;17.41;34.61;101429.16;4957885;28;20034;-77
2022/03/13 11:08:40;;;;;;;20.27;14.80;;;;;;;17.42;33.89;101433.50;4939349;28;20046;-77
2022/03/13 11:11:06;;;;;;;18.27;14.05;;;;;;;17.27;34.03;101435.09;4943672;28;20134;-77